Sultan Atasoy — TCYG9 — position and weather

sailwx.info

Track history (hours):
 
Tides and Currents Weather Stations Pressure Air Temp Water Temp Dewpoint Dewpoint Depression Visibility Wind Speed Wind Dir Waves Ship Positions

Sultan Atasoy

Last reported at 2014-Aug-30 14:05 UTC. Time now 2014-Sep-01 11:38 UTC.
Position N 41°01' E 028°60'.

Length 109 m; draft 4.5 m.

Type: Ship. MMSI: 271040963.

Date/timePositionNaut miles runAvg speedWind from/ knotsBaromVisibWave heightAir tempDewpointWater temp
2014-Aug-30 14:05N 41°01' E 028°60'4 7.4
2014-Aug-30 13:33N 40°57' E 028°59'3 2.9
2014-Aug-30 12:31N 40°56' E 028°56'2 1.7
2014-Aug-30 11:24N 40°58' E 028°55'0 0.0
2014-Aug-30 10:30N 40°58' E 028°55'0 0.0
2014-Aug-30 09:12N 40°58' E 028°55'0 0.0
2014-Aug-30 08:30N 40°58' E 028°55'0 0.0
2014-Aug-30 07:18N 40°58' E 028°55'0 0.0
2014-Aug-30 06:30N 40°58' E 028°55'0 0.0
2014-Aug-30 05:30N 40°58' E 028°55'0 0.0
2014-Aug-30 04:30N 40°58' E 028°55'0 0.0
2014-Aug-30 03:18N 40°58' E 028°55'0 0.0
2014-Aug-30 02:24N 40°58' E 028°55'0 0.0
2014-Aug-30 01:24N 40°58' E 028°55'0 0.0
2014-Aug-30 00:24N 40°58' E 028°55'0 0.0
2014-Aug-29 23:30N 40°58' E 028°55'0 0.0
2014-Aug-29 22:18N 40°58' E 028°55'0 0.0
2014-Aug-29 21:24N 40°58' E 028°55'0 0.0
2014-Aug-29 20:30N 40°58' E 028°55'0 0.0
2014-Aug-29 19:30N 40°58' E 028°55'0 0.0
2014-Aug-29 18:24N 40°58' E 028°55'0 0.0
2014-Aug-29 17:24N 40°58' E 028°55'0 0.0
2014-Aug-29 16:30N 40°58' E 028°55'0 0.0
2014-Aug-29 15:12N 40°58' E 028°55'0 0.0
2014-Aug-29 14:24N 40°58' E 028°55'0 0.0
2014-Aug-29 13:06N 40°58' E 028°55'0 0.1
2014-Aug-29 12:30N 40°58' E 028°55'0 0.0
2014-Aug-29 11:30N 40°58' E 028°55'0 0.0
2014-Aug-29 10:24N 40°58' E 028°55'0 0.0
2014-Aug-29 09:24N 40°58' E 028°55'0 0.4
2014-Aug-29 08:33N 40°58' E 028°55'1010.4
2014-Aug-29 07:33N 40°50' E 029°05'6 5.5
2014-Aug-29 06:30N 40°52' E 029°12'0 0.0
2014-Aug-29 05:30N 40°52' E 029°12'0 0.0
2014-Aug-29 04:30N 40°52' E 029°12'0 0.0
2014-Aug-29 03:24N 40°52' E 029°12'0 0.0
2014-Aug-29 02:30N 40°52' E 029°12'0 0.0
2014-Aug-29 01:12N 40°52' E 029°12'0 0.0
2014-Aug-29 00:24N 40°52' E 029°12'0 0.0
2014-Aug-28 23:30N 40°52' E 029°12'0 0.0
2014-Aug-28 22:30N 40°52' E 029°12'0 0.0
2014-Aug-28 21:30N 40°52' E 029°12'0 0.0
2014-Aug-28 20:30N 40°52' E 029°12'0 0.0
2014-Aug-28 19:30N 40°52' E 029°12'0 0.0
2014-Aug-28 18:30N 40°52' E 029°12'0 0.0
2014-Aug-28 17:30N 40°52' E 029°12'0 0.0
2014-Aug-28 16:30N 40°52' E 029°12'0 0.0
2014-Aug-28 15:30N 40°52' E 029°12'0 0.0
2014-Aug-28 14:30N 40°52' E 029°12'0 0.0
2014-Aug-28 13:30N 40°52' E 029°12'0 0.0
2014-Aug-28 12:30N 40°52' E 029°12'0 0.0
2014-Aug-28 11:30N 40°52' E 029°12'0 0.0
2014-Aug-28 10:30N 40°52' E 029°12'0 0.0
2014-Aug-28 09:30N 40°52' E 029°12'0 0.1
2014-Aug-28 08:30N 40°52' E 029°12'0 0.1
2014-Aug-28 07:30N 40°53' E 029°12'0 0.0
2014-Aug-28 06:30N 40°52' E 029°12'0 0.0
2014-Aug-28 05:24N 40°52' E 029°12'0 0.1
2014-Aug-28 04:30N 40°52' E 029°12'0 0.0
2014-Aug-28 03:18N 40°52' E 029°12'0 0.0
2014-Aug-28 02:30N 40°52' E 029°12'0 0.0
2014-Aug-28 01:12N 40°52' E 029°12'0 0.1
2014-Aug-28 00:30N 40°53' E 029°12'0 0.0
2014-Aug-27 23:30N 40°52' E 029°12'0 0.0
2014-Aug-27 22:30N 40°53' E 029°12'0 0.0
2014-Aug-27 21:30N 40°52' E 029°12'0 0.0
2014-Aug-27 20:30N 40°52' E 029°12'0 0.0
2014-Aug-27 19:30N 40°52' E 029°12'0 0.0
2014-Aug-27 18:30N 40°52' E 029°12'0 0.0
2014-Aug-27 17:30N 40°52' E 029°12'0 0.0
2014-Aug-27 16:24N 40°52' E 029°12'0 0.1
2014-Aug-27 15:18N 40°52' E 029°12'0 0.1
2014-Aug-27 14:30N 40°52' E 029°12'0 0.0
2014-Aug-27 13:30N 40°52' E 029°12'0 0.0
2014-Aug-27 12:30N 40°52' E 029°12'0 0.0
2014-Aug-27 11:24N 40°52' E 029°12'0 0.0
2014-Aug-27 10:30N 40°52' E 029°12'0 0.0
2014-Aug-27 09:24N 40°52' E 029°12'0 0.1
2014-Aug-27 08:30N 40°52' E 029°12'0 0.0
2014-Aug-27 07:24N 40°52' E 029°12'0 0.0
2014-Aug-27 06:30N 40°52' E 029°12'0 0.1
2014-Aug-27 05:30N 40°52' E 029°12'0 0.0
2014-Aug-27 04:24N 40°52' E 029°12'0 0.0
2014-Aug-27 03:30N 40°52' E 029°12'0 0.0
2014-Aug-27 02:12N 40°52' E 029°12'0 0.0
2014-Aug-27 01:30N 40°52' E 029°12'0 0.0
2014-Aug-27 00:18N 40°52' E 029°12'0 0.0
2014-Aug-26 23:24N 40°52' E 029°12'0 0.0
2014-Aug-26 22:30N 40°52' E 029°12'0 0.0
2014-Aug-26 21:30N 40°52' E 029°12'0 0.0
2014-Aug-26 20:18N 40°52' E 029°12'0 0.0
2014-Aug-26 19:18N 40°52' E 029°12'0 0.0
2014-Aug-26 18:12N 40°52' E 029°12'0 0.0
2014-Aug-26 17:27N 40°52' E 029°12'0 0.0
2014-Aug-26 16:27N 40°52' E 029°12'0 0.0
2014-Aug-26 15:33N 40°52' E 029°12'0 0.0
2014-Aug-26 14:33N 40°52' E 029°12'0 0.0
2014-Aug-26 13:33N 40°52' E 029°12'0 0.0
2014-Aug-26 12:27N 40°52' E 029°12'0 0.0
2014-Aug-26 11:27N 40°52' E 029°12'0 0.0
2014-Aug-26 10:33N 40°52' E 029°12'0 0.0
2014-Aug-26 09:24N 40°52' E 029°12'0 0.0
2014-Aug-26 08:30N 40°52' E 029°12'0 0.0
2014-Aug-26 06:30N 40°52' E 029°12'0 0.0
2014-Aug-26 05:30N 40°52' E 029°12'0 0.0
2014-Aug-26 04:30N 40°52' E 029°12'0 0.0
2014-Aug-26 03:30N 40°52' E 029°12'0 0.0
2014-Aug-26 02:30N 40°52' E 029°12'0 0.0
2014-Aug-26 01:30N 40°52' E 029°12'0 0.0
2014-Aug-26 00:30N 40°52' E 029°12'0 0.0
2014-Aug-25 23:24N 40°52' E 029°12'0 0.0
2014-Aug-25 22:30N 40°52' E 029°12'0 0.0
2014-Aug-25 21:30N 40°52' E 029°12'0 0.0
2014-Aug-25 20:24N 40°52' E 029°12'0 0.0
2014-Aug-25 19:34N 40°52' E 029°12'0 0.0
2014-Aug-25 18:33N 40°52' E 029°12'0 0.0
2014-Aug-25 17:33N 40°52' E 029°12'0 0.0
2014-Aug-25 16:34N 40°52' E 029°12'0 0.0
2014-Aug-25 15:33N 40°52' E 029°12'0 0.0
2014-Aug-25 14:33N 40°52' E 029°12'0 0.2
2014-Aug-25 13:34N 40°52' E 029°12'8 8.1
2014-Aug-25 12:33N 40°45' E 029°18'11 9.8
2014-Aug-25 11:25N 40°46' E 029°33'0 0.0
2014-Aug-25 08:21N 40°46' E 029°33'0 0.0
2014-Aug-25 06:25N 40°46' E 029°33'0 0.0
2014-Aug-25 05:32N 40°46' E 029°33'0 0.0
2014-Aug-25 04:33N 40°46' E 029°33'0 0.0
2014-Aug-25 03:29N 40°46' E 029°33'0 0.0
2014-Aug-25 02:24N 40°46' E 029°33'0 0.0
2014-Aug-25 00:31N 40°46' E 029°33'0 0.0
2014-Aug-24 23:34N 40°46' E 029°33'0 0.0
2014-Aug-24 19:09N 40°46' E 029°33'0 0.0
2014-Aug-24 18:24N 40°46' E 029°33'0 0.0
2014-Aug-24 17:34N 40°46' E 029°33'0 0.0
2014-Aug-24 10:09N 40°46' E 029°33'0 0.0
2014-Aug-24 09:14N 40°46' E 029°33'0 0.0
2014-Aug-24 08:25N 40°46' E 029°33'0 0.0
2014-Aug-24 03:33N 40°46' E 029°33'0 0.0
2014-Aug-24 02:33N 40°46' E 029°33'0 0.0
2014-Aug-24 01:32N 40°46' E 029°33'0 0.0
2014-Aug-23 23:32N 40°46' E 029°33'0 0.1
2014-Aug-23 20:32N 40°46' E 029°33'5 4.7
2014-Aug-23 19:32N 40°45' E 029°27'43 2.3
2014-Aug-23 00:31N 41°25' E 029°06'4611.3
2014-Aug-22 20:29N 42°08' E 029°26'  
Track history (hours):
 
Tides and Currents Weather Stations Pressure Air Temp Water Temp Dewpoint Dewpoint Depression Visibility Wind Speed Wind Dir Waves Ship Positions

Sultan Atasoy

Last reported at 2014-Aug-30 14:05 UTC. Time now 2014-Sep-01 11:38 UTC.
Position N 41°01' E 028°60'.

Length 109 m; draft 4.5 m.

Type: Ship. MMSI: 271040963.

Date/timePositionNaut miles runAvg speedWind from/ knotsBaromVisibWave heightAir tempDewpointWater temp
2014-Aug-30 14:05N 41°01' E 028°60'4 7.4
2014-Aug-30 13:33N 40°57' E 028°59'3 2.9
2014-Aug-30 12:31N 40°56' E 028°56'2 1.7
2014-Aug-30 11:24N 40°58' E 028°55'0 0.0
2014-Aug-30 10:30N 40°58' E 028°55'0 0.0
2014-Aug-30 09:12N 40°58' E 028°55'0 0.0
2014-Aug-30 08:30N 40°58' E 028°55'0 0.0
2014-Aug-30 07:18N 40°58' E 028°55'0 0.0
2014-Aug-30 06:30N 40°58' E 028°55'0 0.0
2014-Aug-30 05:30N 40°58' E 028°55'0 0.0
2014-Aug-30 04:30N 40°58' E 028°55'0 0.0
2014-Aug-30 03:18N 40°58' E 028°55'0 0.0
2014-Aug-30 02:24N 40°58' E 028°55'0 0.0
2014-Aug-30 01:24N 40°58' E 028°55'0 0.0
2014-Aug-30 00:24N 40°58' E 028°55'0 0.0
2014-Aug-29 23:30N 40°58' E 028°55'0 0.0
2014-Aug-29 22:18N 40°58' E 028°55'0 0.0
2014-Aug-29 21:24N 40°58' E 028°55'0 0.0
2014-Aug-29 20:30N 40°58' E 028°55'0 0.0
2014-Aug-29 19:30N 40°58' E 028°55'0 0.0
2014-Aug-29 18:24N 40°58' E 028°55'0 0.0
2014-Aug-29 17:24N 40°58' E 028°55'0 0.0
2014-Aug-29 16:30N 40°58' E 028°55'0 0.0
2014-Aug-29 15:12N 40°58' E 028°55'0 0.0
2014-Aug-29 14:24N 40°58' E 028°55'0 0.0
2014-Aug-29 13:06N 40°58' E 028°55'0 0.1
2014-Aug-29 12:30N 40°58' E 028°55'0 0.0
2014-Aug-29 11:30N 40°58' E 028°55'0 0.0
2014-Aug-29 10:24N 40°58' E 028°55'0 0.0
2014-Aug-29 09:24N 40°58' E 028°55'0 0.4
2014-Aug-29 08:33N 40°58' E 028°55'1010.4
2014-Aug-29 07:33N 40°50' E 029°05'6 5.5
2014-Aug-29 06:30N 40°52' E 029°12'0 0.0
2014-Aug-29 05:30N 40°52' E 029°12'0 0.0
2014-Aug-29 04:30N 40°52' E 029°12'0 0.0
2014-Aug-29 03:24N 40°52' E 029°12'0 0.0
2014-Aug-29 02:30N 40°52' E 029°12'0 0.0
2014-Aug-29 01:12N 40°52' E 029°12'0 0.0
2014-Aug-29 00:24N 40°52' E 029°12'0 0.0
2014-Aug-28 23:30N 40°52' E 029°12'0 0.0
2014-Aug-28 22:30N 40°52' E 029°12'0 0.0
2014-Aug-28 21:30N 40°52' E 029°12'0 0.0
2014-Aug-28 20:30N 40°52' E 029°12'0 0.0
2014-Aug-28 19:30N 40°52' E 029°12'0 0.0
2014-Aug-28 18:30N 40°52' E 029°12'0 0.0
2014-Aug-28 17:30N 40°52' E 029°12'0 0.0
2014-Aug-28 16:30N 40°52' E 029°12'0 0.0
2014-Aug-28 15:30N 40°52' E 029°12'0 0.0
2014-Aug-28 14:30N 40°52' E 029°12'0 0.0
2014-Aug-28 13:30N 40°52' E 029°12'0 0.0
2014-Aug-28 12:30N 40°52' E 029°12'0 0.0
2014-Aug-28 11:30N 40°52' E 029°12'0 0.0
2014-Aug-28 10:30N 40°52' E 029°12'0 0.0
2014-Aug-28 09:30N 40°52' E 029°12'0 0.1
2014-Aug-28 08:30N 40°52' E 029°12'0 0.1
2014-Aug-28 07:30N 40°53' E 029°12'0 0.0
2014-Aug-28 06:30N 40°52' E 029°12'0 0.0
2014-Aug-28 05:24N 40°52' E 029°12'0 0.1
2014-Aug-28 04:30N 40°52' E 029°12'0 0.0
2014-Aug-28 03:18N 40°52' E 029°12'0 0.0
2014-Aug-28 02:30N 40°52' E 029°12'0 0.0
2014-Aug-28 01:12N 40°52' E 029°12'0 0.1
2014-Aug-28 00:30N 40°53' E 029°12'0 0.0
2014-Aug-27 23:30N 40°52' E 029°12'0 0.0
2014-Aug-27 22:30N 40°53' E 029°12'0 0.0
2014-Aug-27 21:30N 40°52' E 029°12'0 0.0
2014-Aug-27 20:30N 40°52' E 029°12'0 0.0
2014-Aug-27 19:30N 40°52' E 029°12'0 0.0
2014-Aug-27 18:30N 40°52' E 029°12'0 0.0
2014-Aug-27 17:30N 40°52' E 029°12'0 0.0
2014-Aug-27 16:24N 40°52' E 029°12'0 0.1
2014-Aug-27 15:18N 40°52' E 029°12'0 0.1
2014-Aug-27 14:30N 40°52' E 029°12'0 0.0
2014-Aug-27 13:30N 40°52' E 029°12'0 0.0
2014-Aug-27 12:30N 40°52' E 029°12'0 0.0
2014-Aug-27 11:24N 40°52' E 029°12'0 0.0
2014-Aug-27 10:30N 40°52' E 029°12'0 0.0
2014-Aug-27 09:24N 40°52' E 029°12'0 0.1
2014-Aug-27 08:30N 40°52' E 029°12'0 0.0
2014-Aug-27 07:24N 40°52' E 029°12'0 0.0
2014-Aug-27 06:30N 40°52' E 029°12'0 0.1
2014-Aug-27 05:30N 40°52' E 029°12'0 0.0
2014-Aug-27 04:24N 40°52' E 029°12'0 0.0
2014-Aug-27 03:30N 40°52' E 029°12'0 0.0
2014-Aug-27 02:12N 40°52' E 029°12'0 0.0
2014-Aug-27 01:30N 40°52' E 029°12'0 0.0
2014-Aug-27 00:18N 40°52' E 029°12'0 0.0
2014-Aug-26 23:24N 40°52' E 029°12'0 0.0
2014-Aug-26 22:30N 40°52' E 029°12'0 0.0
2014-Aug-26 21:30N 40°52' E 029°12'0 0.0
2014-Aug-26 20:18N 40°52' E 029°12'0 0.0
2014-Aug-26 19:18N 40°52' E 029°12'0 0.0
2014-Aug-26 18:12N 40°52' E 029°12'0 0.0
2014-Aug-26 17:27N 40°52' E 029°12'0 0.0
2014-Aug-26 16:27N 40°52' E 029°12'0 0.0
2014-Aug-26 15:33N 40°52' E 029°12'0 0.0
2014-Aug-26 14:33N 40°52' E 029°12'0 0.0
2014-Aug-26 13:33N 40°52' E 029°12'0 0.0
2014-Aug-26 12:27N 40°52' E 029°12'0 0.0
2014-Aug-26 11:27N 40°52' E 029°12'0 0.0
2014-Aug-26 10:33N 40°52' E 029°12'0 0.0
2014-Aug-26 09:24N 40°52' E 029°12'0 0.0
2014-Aug-26 08:30N 40°52' E 029°12'0 0.0
2014-Aug-26 06:30N 40°52' E 029°12'0 0.0
2014-Aug-26 05:30N 40°52' E 029°12'0 0.0
2014-Aug-26 04:30N 40°52' E 029°12'0 0.0
2014-Aug-26 03:30N 40°52' E 029°12'0 0.0
2014-Aug-26 02:30N 40°52' E 029°12'0 0.0
2014-Aug-26 01:30N 40°52' E 029°12'0 0.0
2014-Aug-26 00:30N 40°52' E 029°12'0 0.0
2014-Aug-25 23:24N 40°52' E 029°12'0 0.0
2014-Aug-25 22:30N 40°52' E 029°12'0 0.0
2014-Aug-25 21:30N 40°52' E 029°12'0 0.0
2014-Aug-25 20:24N 40°52' E 029°12'0 0.0
2014-Aug-25 19:34N 40°52' E 029°12'0 0.0
2014-Aug-25 18:33N 40°52' E 029°12'0 0.0
2014-Aug-25 17:33N 40°52' E 029°12'0 0.0
2014-Aug-25 16:34N 40°52' E 029°12'0 0.0
2014-Aug-25 15:33N 40°52' E 029°12'0 0.0
2014-Aug-25 14:33N 40°52' E 029°12'0 0.2
2014-Aug-25 13:34N 40°52' E 029°12'8 8.1
2014-Aug-25 12:33N 40°45' E 029°18'11 9.8
2014-Aug-25 11:25N 40°46' E 029°33'0 0.0
2014-Aug-25 08:21N 40°46' E 029°33'0 0.0
2014-Aug-25 06:25N 40°46' E 029°33'0 0.0
2014-Aug-25 05:32N 40°46' E 029°33'0 0.0
2014-Aug-25 04:33N 40°46' E 029°33'0 0.0
2014-Aug-25 03:29N 40°46' E 029°33'0 0.0
2014-Aug-25 02:24N 40°46' E 029°33'0 0.0
2014-Aug-25 00:31N 40°46' E 029°33'0 0.0
2014-Aug-24 23:34N 40°46' E 029°33'0 0.0
2014-Aug-24 19:09N 40°46' E 029°33'0 0.0
2014-Aug-24 18:24N 40°46' E 029°33'0 0.0
2014-Aug-24 17:34N 40°46' E 029°33'0 0.0
2014-Aug-24 10:09N 40°46' E 029°33'0 0.0
2014-Aug-24 09:14N 40°46' E 029°33'0 0.0
2014-Aug-24 08:25N 40°46' E 029°33'0 0.0
2014-Aug-24 03:33N 40°46' E 029°33'0 0.0
2014-Aug-24 02:33N 40°46' E 029°33'0 0.0
2014-Aug-24 01:32N 40°46' E 029°33'0 0.0
2014-Aug-23 23:32N 40°46' E 029°33'0 0.1
2014-Aug-23 20:32N 40°46' E 029°33'5 4.7
2014-Aug-23 19:32N 40°45' E 029°27'43 2.3
2014-Aug-23 00:31N 41°25' E 029°06'4611.3
2014-Aug-22 20:29N 42°08' E 029°26'  

Dump ship's entire track history